Franklin Park, Illinois
Current Conditions -  °F | °C
As of 7:51 PM on Sunday 25 Jan 2015 (Local Time) from KORD Reporting Station
Scattered Clouds Scattered Clouds  
Wind Chill: 16°   Ceiling: Unl
Heat Index: 26°   Visibility: 10mi
Dew Point: 16°   Wind: 10mph
Humidity: 66%   Direction: 30°NNE
Pressure: 29.97"   Gusts: NA
Location:  41.94°N, 87.86°W
Report Text: KORD 260151Z 03009KT 10SM SCT028 M03/M09 A2997 RMK AO2 SLP157 T10331089
Loading
Personal Weather Stations






























Interactive Weather Map New forecast layout! Learn more

10-Day Weather Forecast

Advertisements
Track Severe Weather on mobile